createdAt,value
2019-02-14T05:00:50.134Z,75.80
2019-02-14T05:03:25.750Z,76.00
2019-02-14T05:06:01.640Z,76.00
2019-02-14T05:08:36.875Z,76.00
2019-02-14T05:11:11.938Z,75.80
2019-02-14T05:13:46.903Z,75.80
2019-02-14T06:02:05.714Z,76.00
2019-02-14T06:04:40.658Z,76.60
2019-02-14T06:07:16.022Z,76.80
2019-02-14T06:09:51.139Z,77.00
2019-02-14T06:12:26.110Z,76.90
2019-02-14T06:15:01.331Z,76.80
2019-02-14T07:00:14.758Z,76.60
2019-02-14T07:02:49.779Z,76.60
2019-02-14T07:05:24.867Z,76.50
2019-02-14T07:07:59.791Z,76.60
2019-02-14T07:10:35.187Z,76.50
2019-02-14T07:13:10.336Z,76.50
2019-02-14T08:01:13.647Z,68.20
2019-02-14T08:03:36.087Z,64.50
2019-02-14T08:05:58.767Z,62.50
2019-02-14T08:08:21.210Z,58.30
2019-02-14T08:11:03.195Z,51.30
2019-02-14T08:13:37.801Z,43.00
2019-02-14T09:01:42.374Z,34.50
2019-02-14T09:04:04.928Z,34.50
2019-02-14T09:06:27.354Z,34.60
2019-02-14T09:08:49.914Z,31.80
2019-02-14T09:11:12.422Z,27.00
2019-02-14T09:13:34.949Z,24.70
2019-02-14T10:01:18.115Z,24.80
2019-02-14T10:03:41.913Z,25.00
2019-02-14T10:06:04.432Z,23.00
2019-02-14T10:08:26.959Z,20.90
2019-02-14T10:10:49.370Z,19.70
2019-02-14T10:13:11.890Z,18.40
2019-02-14T11:00:45.156Z,18.00
2019-02-14T11:03:07.510Z,18.50
2019-02-14T11:05:29.970Z,18.30
2019-02-14T11:07:52.475Z,18.90
2019-02-14T11:10:27.059Z,19.20
2019-02-14T11:13:02.178Z,19.50
2019-02-14T11:51:53.423Z,21.80
2019-02-14T11:54:28.306Z,22.00
2019-02-14T11:56:51.046Z,22.00
2019-02-14T11:59:13.578Z,22.60
2019-02-14T12:01:36.000Z,22.80
2019-02-14T12:03:58.407Z,22.70
2019-02-14T12:06:33.724Z,22.60
2019-02-14T12:09:00.209Z,23.00
2019-02-14T12:11:20.595Z,23.40
2019-02-14T12:13:43.139Z,23.60
2019-02-14T12:16:05.569Z,23.60
2019-02-14T12:18:27.987Z,23.60
2019-02-14T12:20:50.437Z,23.80
2019-02-14T12:23:12.850Z,24.10
2019-02-14T12:25:35.275Z,24.30
2019-02-14T12:27:57.874Z,24.40
2019-02-14T12:30:21.023Z,24.20
2019-02-14T12:32:43.530Z,24.80
2019-02-14T12:35:06.094Z,25.50
2019-02-14T12:37:28.543Z,26.40
2019-02-14T12:39:50.968Z,26.10
2019-02-14T12:42:13.402Z,26.80
2019-02-14T12:44:36.021Z,26.60
2019-02-14T12:46:58.693Z,26.70
2019-02-14T12:49:21.150Z,26.50
2019-02-14T12:51:43.619Z,26.80
2019-02-14T12:54:06.074Z,26.60
2019-02-14T12:56:28.563Z,26.90
2019-02-14T12:59:10.538Z,26.90
2019-02-14T13:01:32.971Z,27.20
2019-02-14T14:01:15.803Z,25.60
2019-02-14T14:03:38.340Z,25.90
2019-02-14T14:06:00.754Z,25.60
2019-02-14T14:08:23.207Z,25.40
2019-02-14T14:10:45.611Z,25.60
2019-02-14T14:13:08.049Z,25.50
2019-02-14T15:04:09.281Z,28.80
2019-02-14T15:06:45.758Z,29.20
2019-02-14T15:09:20.807Z,29.10
2019-02-14T15:11:56.142Z,29.10
2019-02-14T15:14:31.106Z,29.20
2019-02-14T16:01:19.054Z,32.60
2019-02-14T16:03:42.730Z,32.50
2019-02-14T16:06:06.178Z,32.70
2019-02-14T16:08:28.834Z,32.70
2019-02-14T16:10:54.101Z,32.80
2019-02-14T16:13:15.683Z,32.90
2019-02-14T16:21:27.757Z,33.60
2019-02-14T16:23:53.025Z,33.70
2019-02-14T16:26:17.116Z,33.80
2019-02-14T16:28:39.880Z,34.10
2019-02-14T16:31:02.391Z,34.50
2019-02-14T16:33:24.919Z,34.70
2019-02-14T16:35:47.458Z,35.10
2019-02-14T16:38:11.781Z,35.60
2019-02-14T16:40:38.507Z,35.90
2019-02-14T16:42:58.838Z,36.50
2019-02-14T16:45:21.270Z,36.80
2019-02-14T16:47:43.687Z,37.10
2019-02-14T16:50:06.838Z,37.50
2019-02-14T16:52:29.425Z,37.50
2019-02-14T16:54:51.921Z,38.50
2019-02-14T16:57:14.366Z,38.90
2019-02-14T16:59:36.886Z,39.10
2019-02-14T17:01:59.474Z,39.20
2019-02-14T17:04:21.915Z,39.70
2019-02-14T17:06:44.382Z,40.00
2019-02-14T17:09:06.914Z,40.80
2019-02-14T17:11:31.279Z,40.90
2019-02-14T17:13:53.786Z,41.30
2019-02-14T18:02:40.843Z,48.20
2019-02-14T18:05:03.500Z,48.60
2019-02-14T18:07:26.110Z,48.70
2019-02-14T18:09:48.633Z,49.50
2019-02-14T18:12:11.047Z,50.00
2019-02-14T18:14:33.462Z,50.40
2019-02-14T19:00:55.195Z,52.60
2019-02-14T19:03:17.727Z,52.80
2019-02-14T19:05:40.269Z,52.40
2019-02-14T19:08:22.367Z,52.40
2019-02-14T19:10:57.451Z,52.10
2019-02-14T19:13:33.001Z,52.20
2019-02-14T20:00:19.738Z,54.90
2019-02-14T20:03:01.730Z,54.80
2019-02-14T20:05:36.963Z,55.20
2019-02-14T20:08:12.046Z,55.30
2019-02-14T20:10:47.034Z,55.60
2019-02-14T20:13:22.123Z,55.90
2019-02-14T21:01:34.999Z,58.10
2019-02-14T21:03:57.554Z,58.40
2019-02-14T21:06:20.100Z,58.30
2019-02-14T21:08:42.547Z,57.80
2019-02-14T21:11:24.432Z,58.80
2019-02-14T21:13:59.209Z,58.50
